EmailTwitter


Observations de surface / France / LFBO (07630)

Régions: Québec | Canada | États-Unis | Europe | France | UK | Ailleurs
Station
Affichage
Infos & localisation pour LFBO (07630) | Aide pour décoder les METARs

Observations prises le 2020-09-21 à 12H00 UTC à TOULOUSE/BLAGNAC, FR (LFBO)

Etat du ciel: ciel variable.

Température: 23.0 Celsius

Point de rosée: 15.0 Celsius

Humidité relative: 61%

Indice Humidex: 27.

Vents: Variable à 6 km/h ou 3 noeuds.

Pression au niveau moyen de la mer: 101.70 kilopascals.

Visibilité horizontale: 6.21 milles terrestres ou 9.94 kilomètres.

Observation METAR:

LFBO 211200Z AUTO VRB03KT 9999 FEW033/// SCT064/// ///TCU 23/15 Q1017 TEMPO

4000 SHRA BKN014 SCT040CB=